createdAt,value
2022-12-25T00:04:47.357Z,100533.38
2022-12-25T00:09:48.806Z,100533.38
2022-12-25T00:14:50.480Z,100536.84
2022-12-25T00:19:51.904Z,100543.56
2022-12-25T00:24:53.378Z,100541.53
2022-12-25T00:29:54.985Z,100542.22
2022-12-25T00:34:56.435Z,100533.13
2022-12-25T00:39:58.024Z,100527.22
2022-12-25T00:44:59.428Z,100533.44
2022-12-25T00:50:00.941Z,100530.13
2022-12-25T00:55:02.829Z,100513.81
2022-12-25T01:00:05.092Z,100524.13
2022-12-25T01:05:07.453Z,100527.59
2022-12-25T01:10:10.892Z,100540.41
2022-12-25T01:15:13.176Z,100536.06
2022-12-25T01:20:17.285Z,100526.63
2022-12-25T01:25:18.758Z,100530.06
2022-12-25T01:30:20.212Z,100542.06
2022-12-25T01:35:21.765Z,100530.59
2022-12-25T01:40:23.296Z,100532.97
2022-12-25T01:45:44.025Z,100533.94
2022-12-25T01:50:56.322Z,100512.28
2022-12-25T01:56:03.322Z,100520.19
2022-12-25T02:01:04.824Z,100521.19
2022-12-25T02:06:07.385Z,100509.44
2022-12-25T02:11:09.241Z,100502.13
2022-12-25T02:16:19.556Z,100508.25
2022-12-25T02:21:28.727Z,100501.66
2022-12-25T02:27:20.867Z,100487.44
2022-12-25T02:32:25.316Z,100492.94
2022-12-25T02:37:35.905Z,100503.13
2022-12-25T02:42:37.318Z,100501.22
2022-12-25T02:47:39.422Z,100509.97
2022-12-25T02:52:43.546Z,100519.44
2022-12-25T02:57:50.447Z,100514.88
2022-12-25T03:02:53.643Z,100506.38
2022-12-25T03:07:59.309Z,100510.09
2022-12-25T03:13:03.534Z,100512.13
2022-12-25T03:18:09.905Z,100510.44
2022-12-25T03:23:15.374Z,100515.72
2022-12-25T03:28:17.031Z,100506.97
2022-12-25T03:33:45.634Z,100498.47
2022-12-25T03:39:00.651Z,100475.31
2022-12-25T03:44:17.329Z,100469.09
2022-12-25T03:49:26.542Z,100471.63
2022-12-25T03:54:33.566Z,100468.75
2022-12-25T03:59:35.086Z,100469.09
2022-12-25T04:04:37.181Z,100470.16
2022-12-25T04:09:38.602Z,100471.34
2022-12-25T04:14:40.094Z,100460.94
2022-12-25T04:19:41.581Z,100464.78
2022-12-25T04:24:43.052Z,100460.50
2022-12-25T04:29:44.626Z,100448.38
2022-12-25T04:34:46.174Z,100440.81
2022-12-25T04:39:47.710Z,100447.41
2022-12-25T04:44:49.233Z,100455.53
2022-12-25T04:49:50.841Z,100461.53
2022-12-25T04:54:52.349Z,100463.94
2022-12-25T04:59:53.796Z,100468.25
2022-12-25T05:04:55.307Z,100450.66
2022-12-25T05:09:56.783Z,100454.84
2022-12-25T05:14:58.359Z,100457.13
2022-12-25T05:19:59.943Z,100454.25
2022-12-25T05:25:01.471Z,100453.03
2022-12-25T05:30:03.841Z,100437.38
2022-12-25T05:35:05.700Z,100447.78
2022-12-25T05:40:07.799Z,100448.38
2022-12-25T05:45:10.547Z,100451.38
2022-12-25T05:50:12.204Z,100437.38
2022-12-25T05:55:13.681Z,100423.44
2022-12-25T06:00:15.364Z,100414.81
2022-12-25T06:05:16.874Z,100426.84
2022-12-25T06:10:18.441Z,100420.22
2022-12-25T06:15:19.849Z,100418.53
2022-12-25T06:20:21.599Z,100419.88
2022-12-25T06:25:23.037Z,100403.81
2022-12-25T06:30:24.461Z,100407.91
2022-12-25T06:35:26.512Z,100398.41
2022-12-25T06:40:27.935Z,100417.34
2022-12-25T06:45:29.404Z,100405.38
2022-12-25T06:50:31.132Z,100407.03
2022-12-25T06:55:32.762Z,100399.38
2022-12-25T07:00:34.242Z,100402.13
2022-12-25T07:05:35.783Z,100391.38
2022-12-25T07:10:37.292Z,100393.84
2022-12-25T07:15:38.758Z,100387.41
2022-12-25T07:20:40.167Z,100371.22
2022-12-25T07:25:41.689Z,100378.75
2022-12-25T07:30:43.187Z,100377.22
2022-12-25T07:35:44.666Z,100369.91
2022-12-25T07:40:46.174Z,100356.34
2022-12-25T07:45:47.715Z,100368.31
2022-12-25T07:50:49.215Z,100353.09
2022-12-25T07:55:56.960Z,100341.59
2022-12-25T08:01:07.260Z,100339.16
2022-12-25T08:06:10.556Z,100337.13
2022-12-25T08:11:12.185Z,100352.31
2022-12-25T08:16:13.865Z,100360.59
2022-12-25T08:21:16.168Z,100370.19
2022-12-25T08:26:20.889Z,100349.94
2022-12-25T08:31:25.923Z,100346.91
2022-12-25T08:36:27.463Z,100340.06
2022-12-25T08:41:28.924Z,100353.97
2022-12-25T08:46:30.626Z,100337.56
2022-12-25T08:51:32.137Z,100340.44
2022-12-25T08:56:33.653Z,100328.19
2022-12-25T09:14:56.535Z,100328.31
2022-12-25T09:19:57.971Z,100329.94
2022-12-25T09:24:59.668Z,100323.41
2022-12-25T09:30:01.118Z,100308.47
2022-12-25T09:35:02.632Z,100291.31
2022-12-25T09:40:04.626Z,100300.50
2022-12-25T09:45:14.715Z,100290.25
2022-12-25T09:50:54.484Z,100286.91
2022-12-25T09:56:09.788Z,100303.34
2022-12-25T10:01:18.830Z,100279.47
2022-12-25T10:06:33.871Z,100307.84
2022-12-25T10:11:57.151Z,100297.59
2022-12-25T10:17:20.846Z,100287.03
2022-12-25T10:22:44.333Z,100281.13
2022-12-25T10:27:51.955Z,100269.56
2022-12-25T10:32:56.161Z,100250.91
2022-12-25T10:38:01.212Z,100249.88
2022-12-25T10:43:15.390Z,100243.38
2022-12-25T10:48:26.329Z,100244.72
2022-12-25T10:53:29.670Z,100250.00
2022-12-25T10:58:31.758Z,100260.56
2022-12-25T11:03:37.284Z,100245.59
2022-12-25T11:08:38.963Z,100236.72
2022-12-25T11:13:49.853Z,100234.28
2022-12-25T11:18:53.853Z,100236.81
2022-12-25T11:24:06.545Z,100194.66
2022-12-25T11:29:19.880Z,100150.75
2022-12-25T11:34:33.518Z,100135.72
2022-12-25T11:39:40.068Z,100127.94
2022-12-25T11:45:11.825Z,100142.81
2022-12-25T11:50:13.335Z,100136.03
2022-12-25T11:55:14.849Z,100117.28
2022-12-25T12:00:17.374Z,100120.88
2022-12-25T12:05:25.664Z,100113.38
2022-12-25T12:10:46.056Z,100106.16
2022-12-25T12:15:50.213Z,100099.63
2022-12-25T12:20:58.608Z,100095.44
2022-12-25T12:26:00.381Z,100100.31
2022-12-25T12:31:08.027Z,100103.38
2022-12-25T12:36:13.580Z,100100.56
2022-12-25T12:41:16.019Z,100119.94
2022-12-25T12:46:30.124Z,100122.56
2022-12-25T12:51:35.083Z,100115.72
2022-12-25T12:56:36.669Z,100102.94
2022-12-25T13:01:51.668Z,100103.22
2022-12-25T13:07:10.174Z,100105.03
2022-12-25T13:12:12.919Z,100095.84
2022-12-25T13:17:22.176Z,100072.06
2022-12-25T13:22:30.916Z,100073.88
2022-12-25T13:27:33.645Z,100079.59
2022-12-25T13:32:35.239Z,100081.56
2022-12-25T13:37:37.297Z,100077.22
2022-12-25T13:42:39.089Z,100088.50
2022-12-25T13:47:42.208Z,100071.81
2022-12-25T13:52:43.766Z,100070.56
2022-12-25T13:57:52.411Z,100078.06
2022-12-25T14:02:54.934Z,100084.59
2022-12-25T14:08:00.011Z,100090.72
2022-12-25T14:13:05.489Z,100095.16
2022-12-25T14:18:14.056Z,100091.81
2022-12-25T14:23:16.051Z,100098.50
2022-12-25T14:28:24.939Z,100105.44
2022-12-25T14:33:28.067Z,100104.31
2022-12-25T14:38:31.772Z,100106.00
2022-12-25T14:43:33.564Z,100105.72
2022-12-25T14:48:35.002Z,100102.00
2022-12-25T14:53:50.551Z,100099.88
2022-12-25T14:58:59.608Z,100099.75
2022-12-25T15:04:20.528Z,100105.72
2022-12-25T15:09:22.776Z,100092.81
2022-12-25T15:14:26.227Z,100102.53
2022-12-25T15:19:36.905Z,100108.78
2022-12-25T15:24:39.111Z,100110.88
2022-12-25T15:35:02.401Z,100097.09
2022-12-25T15:40:06.360Z,100101.56
2022-12-25T15:45:23.134Z,100096.00
2022-12-25T15:50:24.753Z,100068.03
2022-12-25T15:55:26.252Z,100072.34
2022-12-25T16:00:27.706Z,100062.63
2022-12-25T16:05:29.286Z,100056.75
2022-12-25T16:10:36.627Z,100050.22
2022-12-25T16:15:39.893Z,100045.25
2022-12-25T16:20:41.342Z,100070.94
2022-12-25T16:25:42.807Z,100085.63
2022-12-25T16:30:44.434Z,100106.25
2022-12-25T16:35:46.155Z,100109.88
2022-12-25T16:40:59.600Z,100100.53
2022-12-25T16:46:01.149Z,100080.97
2022-12-25T16:51:17.217Z,100078.31
2022-12-25T16:56:19.743Z,100072.34
2022-12-25T17:01:22.563Z,100061.34
2022-12-25T17:06:26.438Z,100052.72
2022-12-25T17:11:28.803Z,100069.97
2022-12-25T17:16:34.014Z,100086.38
2022-12-25T17:21:35.865Z,100088.19
2022-12-25T17:26:37.660Z,100089.47
2022-12-25T17:31:39.820Z,100088.22
2022-12-25T17:36:41.336Z,100085.81
2022-12-25T17:41:42.853Z,100074.31
2022-12-25T17:46:44.504Z,100076.25
2022-12-25T17:51:46.604Z,100048.44
2022-12-25T17:56:48.072Z,100040.38
2022-12-25T18:01:49.907Z,100058.28
2022-12-25T18:06:51.573Z,100067.19
2022-12-25T18:11:53.036Z,100063.56
2022-12-25T18:16:54.721Z,100072.91
2022-12-25T18:21:56.354Z,100061.22
2022-12-25T18:26:57.920Z,100050.91
2022-12-25T18:31:59.529Z,100056.78
2022-12-25T18:37:01.227Z,100068.34
2022-12-25T18:42:02.730Z,100057.06
2022-12-25T18:47:04.473Z,100059.97
2022-12-25T18:52:47.756Z,100041.22
2022-12-25T18:57:27.439Z,100075.56
2022-12-25T19:02:29.416Z,100066.50
2022-12-25T19:07:30.975Z,100038.56
2022-12-25T19:12:32.964Z,100030.78
2022-12-25T19:17:34.597Z,100043.84
2022-12-25T19:22:36.106Z,100038.34
2022-12-25T19:27:37.660Z,100038.63
2022-12-25T19:32:39.248Z,100047.94
2022-12-25T19:37:40.671Z,100056.69
2022-12-25T19:42:42.262Z,100052.81
2022-12-25T19:47:43.711Z,100046.03
2022-12-25T19:52:45.184Z,100052.94
2022-12-25T19:57:46.665Z,100062.97
2022-12-25T20:02:48.450Z,100063.38
2022-12-25T20:07:49.987Z,100048.78
2022-12-25T20:12:51.489Z,100048.78
2022-12-25T20:17:53.032Z,100048.91
2022-12-25T20:22:54.717Z,100061.88
2022-12-25T20:27:56.287Z,100075.81
2022-12-25T20:32:57.790Z,100058.69
2022-12-25T20:37:59.330Z,100073.59
2022-12-25T20:43:00.860Z,100079.66
2022-12-25T20:48:02.321Z,100084.94
2022-12-25T20:53:03.856Z,100097.00
2022-12-25T20:58:05.403Z,100096.00
2022-12-25T21:03:07.361Z,100101.44
2022-12-25T21:08:09.201Z,100088.63
2022-12-25T21:13:11.540Z,100089.47
2022-12-25T21:18:13.136Z,100087.09
2022-12-25T21:23:15.728Z,100084.72
2022-12-25T21:28:17.290Z,100094.91
2022-12-25T21:33:18.887Z,100086.41
2022-12-25T21:38:20.472Z,100082.41
2022-12-25T21:43:21.959Z,100087.25
2022-12-25T21:48:23.478Z,100085.59
2022-12-25T21:53:24.998Z,100074.75
2022-12-25T21:58:26.599Z,100082.69
2022-12-25T22:03:28.180Z,100074.75
2022-12-25T22:08:33.093Z,100070.31
2022-12-25T22:13:34.618Z,100067.69
2022-12-25T22:18:36.146Z,100073.91
2022-12-25T22:23:37.709Z,100077.94
2022-12-25T22:28:39.276Z,100096.75
2022-12-25T22:33:40.846Z,100103.97
2022-12-25T22:38:42.823Z,100106.75
2022-12-25T22:44:15.928Z,100093.81
2022-12-25T22:49:06.232Z,100118.44
2022-12-25T22:54:07.743Z,100104.94
2022-12-25T22:59:10.080Z,100102.84
2022-12-25T23:04:12.580Z,100094.03
2022-12-25T23:09:20.573Z,100098.75
2022-12-25T23:14:27.111Z,100113.75
2022-12-25T23:19:28.533Z,100111.97
2022-12-25T23:24:30.075Z,100101.41
2022-12-25T23:29:31.581Z,100103.19
2022-12-25T23:34:34.222Z,100116.13
2022-12-25T23:39:35.672Z,100119.97
2022-12-25T23:44:37.226Z,100119.56
2022-12-25T23:49:38.889Z,100112.09
2022-12-25T23:54:40.333Z,100103.59
2022-12-25T23:59:41.798Z,100098.56
